Time;durP1;ratioP1;P1;durP2;ratioP2;P2;SDS_P1;SDS_P2;PMS_P1;PMS_P2;Temp;Humidity;BMP_temperature;BMP_pressure;BME280_temperature;BME280_humidity;BME280_pressure;Samples;Min_cycle;Max_cycle;Signal;HPM_P1;HPM_P2
2022/12/31 00:00:30;;;;;;;21.42;3.88;;;;;;;;;;5029146;28;20478;-78
2022/12/31 00:02:56;;;;;;;52.30;19.50;;;;;;;;;;5028226;28;20052;-80
2022/12/31 00:05:22;;;;;;;22.67;5.05;;;;;;;;;;5027577;28;20158;-85
2022/12/31 00:07:49;;;;;;;23.38;3.50;;;;;;;;;;5027166;28;20038;-82
2022/12/31 00:10:15;;;;;;;21.10;3.88;;;;;;;;;;5026999;28;20029;-83
2022/12/31 00:12:41;;;;;;;23.40;4.55;;;;;;;;;;5030118;28;20036;-81
2022/12/31 00:15:07;;;;;;;19.90;3.83;;;;;;;;;;5048308;28;20048;-82
2022/12/31 00:17:33;;;;;;;25.70;5.15;;;;;;;;;;5067689;28;20805;-81
2022/12/31 00:19:59;;;;;;;22.45;5.72;;;;;;;;;;5061659;28;20119;-81
2022/12/31 00:22:25;;;;;;;22.13;5.22;;;;;;;;;;5050451;28;20090;-82
2022/12/31 00:24:51;;;;;;;26.67;4.40;;;;;;;;;;5050858;28;20440;-83
2022/12/31 00:27:17;;;;;;;23.38;4.60;;;;;;;;;;5047262;28;20047;-81
2022/12/31 00:29:43;;;;;;;32.75;4.80;;;;;;;;;;5066377;28;20347;-82
2022/12/31 00:32:09;;;;;;;31.50;4.95;;;;;;;;;;5060747;28;20039;-82
2022/12/31 00:34:35;;;;;;;18.27;4.82;;;;;;;;;;5066180;28;20079;-82
2022/12/31 00:37:01;;;;;;;30.50;5.07;;;;;;;;;;5070175;28;20084;-81
2022/12/31 00:39:27;;;;;;;29.92;4.55;;;;;;;;;;5066010;28;20067;-81
2022/12/31 00:41:53;;;;;;;27.75;5.03;;;;;;;;;;5077774;28;20465;-82
2022/12/31 00:44:19;;;;;;;20.15;3.70;;;;;;;;;;5070287;28;20052;-81
2022/12/31 00:46:45;;;;;;;21.25;3.90;;;;;;;;;;5071248;28;20028;-82
2022/12/31 00:49:11;;;;;;;18.55;4.78;;;;;;;;;;5067338;28;20021;-80
2022/12/31 00:51:37;;;;;;;23.17;4.35;;;;;;;;;;5050336;28;20028;-81
2022/12/31 00:54:03;;;;;;;22.05;4.45;;;;;;;;;;5067625;28;20081;-81
2022/12/31 00:56:30;;;;;;;26.67;4.65;;;;;;;;;;5071403;28;20636;-81
2022/12/31 00:58:56;;;;;;;22.02;4.50;;;;;;;;;;5075482;28;20031;-84
2022/12/31 01:01:22;;;;;;;36.20;5.30;;;;;;;;;;5073738;28;20028;-79
2022/12/31 01:03:49;;;;;;;21.45;3.88;;;;;;;;;;5080786;28;20024;-82
2022/12/31 01:06:15;;;;;;;20.95;4.28;;;;;;;;;;5083290;28;20043;-81
2022/12/31 01:08:41;;;;;;;26.02;4.47;;;;;;;;;;5076840;28;20088;-80
2022/12/31 01:11:22;;;;;;;20.70;4.32;;;;;;;;;;5067543;28;20052;-81
2022/12/31 01:13:51;;;;;;;20.50;3.78;;;;;;;;;;5071775;28;20086;-81
2022/12/31 01:16:18;;;;;;;20.23;3.75;;;;;;;;;;5068363;28;20035;-81
2022/12/31 01:18:44;;;;;;;25.35;4.28;;;;;;;;;;5065942;28;20029;-81
2022/12/31 01:21:11;;;;;;;14.93;4.07;;;;;;;;;;5067297;28;20067;-81
2022/12/31 01:23:37;;;;;;;17.42;4.80;;;;;;;;;;5066622;28;20025;-80
2022/12/31 01:26:04;;;;;;;20.30;3.55;;;;;;;;;;5065286;28;22623;-81
2022/12/31 01:28:30;;;;;;;15.10;3.80;;;;;;;;;;5066544;28;20384;-80
2022/12/31 01:30:57;;;;;;;15.88;3.65;;;;;;;;;;5061404;28;20033;-81
2022/12/31 01:33:23;;;;;;;16.63;3.30;;;;;;;;;;5065200;28;20031;-80
2022/12/31 01:35:49;;;;;;;10.50;3.50;;;;;;;;;;5070917;28;20024;-80
2022/12/31 01:38:15;;;;;;;13.43;3.88;;;;;;;;;;5063516;28;20060;-79
2022/12/31 01:40:41;;;;;;;20.05;4.43;;;;;;;;;;5072683;28;20032;-79
2022/12/31 01:43:18;;;;;;;20.52;4.65;;;;;;;;;;5063721;28;20036;-80
2022/12/31 01:45:45;;;;;;;15.55;4.13;;;;;;;;;;5063258;28;20025;-80
2022/12/31 01:48:12;;;;;;;14.93;4.00;;;;;;;;;;5064680;28;20024;-80
2022/12/31 01:50:39;;;;;;;16.75;3.97;;;;;;;;;;5066399;28;20439;-79
2022/12/31 01:53:06;;;;;;;13.18;3.95;;;;;;;;;;5062025;28;20111;-80
2022/12/31 01:55:53;;;;;;;18.55;3.97;;;;;;;;;;5063063;28;20032;-79
2022/12/31 01:58:24;;;;;;;19.42;3.67;;;;;;;;;;5066028;28;20400;-80
2022/12/31 02:00:51;;;;;;;20.35;4.32;;;;;;;;;;5064666;28;20111;-81
2022/12/31 02:03:17;;;;;;;16.23;3.90;;;;;;;;;;5069881;28;20101;-80
2022/12/31 02:05:46;;;;;;;11.05;3.00;;;;;;;;;;5050936;28;20040;-82
2022/12/31 02:08:12;;;;;;;14.38;3.22;;;;;;;;;;5072949;28;20029;-82
2022/12/31 02:10:38;;;;;;;18.92;3.88;;;;;;;;;;5080406;28;20098;-79
2022/12/31 02:13:04;;;;;;;17.02;4.05;;;;;;;;;;5075474;28;20024;-81
2022/12/31 02:15:53;;;;;;;9.73;3.20;;;;;;;;;;5065984;28;20517;-80
2022/12/31 02:18:34;;;;;;;12.07;3.45;;;;;;;;;;5057057;28;20127;-80
2022/12/31 02:21:12;;;;;;;14.57;3.50;;;;;;;;;;5064015;28;20119;-81
2022/12/31 02:23:38;;;;;;;10.48;3.45;;;;;;;;;;5062321;28;20032;-80
2022/12/31 02:26:30;;;;;;;11.18;2.97;;;;;;;;;;5067534;28;20472;-80
2022/12/31 02:29:14;;;;;;;9.93;3.28;;;;;;;;;;5059227;28;20169;-80
2022/12/31 02:31:50;;;;;;;11.98;3.42;;;;;;;;;;5067924;28;20037;-80
2022/12/31 02:34:25;;;;;;;11.68;3.05;;;;;;;;;;5066003;28;20036;-79
2022/12/31 02:36:52;;;;;;;9.48;2.90;;;;;;;;;;5064353;28;20461;-79
2022/12/31 02:39:18;;;;;;;11.50;2.90;;;;;;;;;;5064047;28;20070;-78
2022/12/31 02:41:50;;;;;;;8.48;2.28;;;;;;;;;;5064005;28;20094;-79
2022/12/31 02:44:24;;;;;;;8.80;1.98;;;;;;;;;;5065358;28;20036;-79
2022/12/31 02:47:12;;;;;;;8.45;2.65;;;;;;;;;;5068494;28;20059;-78
2022/12/31 02:49:41;;;;;;;9.45;2.60;;;;;;;;;;5066492;28;20031;-79
2022/12/31 02:52:17;;;;;;;11.50;2.20;;;;;;;;;;5069421;28;20032;-79
2022/12/31 02:54:50;;;;;;;8.73;1.95;;;;;;;;;;5066570;28;20499;-78
2022/12/31 02:57:22;;;;;;;6.25;1.60;;;;;;;;;;5071446;28;20035;-78
2022/12/31 03:02:33;;;;;;;5.65;1.50;;;;;;;;;;5068062;28;20081;-79
2022/12/31 03:05:01;;;;;;;7.32;1.58;;;;;;;;;;5068186;28;20047;-81
2022/12/31 03:07:28;;;;;;;7.47;1.30;;;;;;;;;;5071099;28;20090;-79
2022/12/31 03:09:54;;;;;;;7.72;1.83;;;;;;;;;;5069162;28;20028;-81
2022/12/31 03:15:18;;;;;;;6.20;1.13;;;;;;;;;;5069493;28;20571;-79
2022/12/31 03:17:47;;;;;;;7.82;1.27;;;;;;;;;;5070954;28;20062;-79
2022/12/31 03:22:58;;;;;;;4.43;1.13;;;;;;;;;;5065345;28;20074;-80
2022/12/31 03:25:39;;;;;;;7.68;1.00;;;;;;;;;;5065788;28;20037;-78
2022/12/31 03:28:07;;;;;;;9.30;1.23;;;;;;;;;;5068015;28;20029;-79
2022/12/31 03:30:33;;;;;;;6.78;1.45;;;;;;;;;;5048206;28;20064;-78
2022/12/31 03:32:59;;;;;;;6.32;1.52;;;;;;;;;;5071694;28;20034;-80
2022/12/31 03:35:26;;;;;;;9.73;1.40;;;;;;;;;;5062336;28;20025;-79
2022/12/31 03:37:53;;;;;;;5.57;1.25;;;;;;;;;;5068534;28;20040;-79
2022/12/31 03:40:20;;;;;;;9.18;1.27;;;;;;;;;;5069626;28;20135;-78
2022/12/31 03:42:46;;;;;;;9.10;1.38;;;;;;;;;;5067574;28;20060;-79
2022/12/31 03:45:12;;;;;;;7.22;1.83;;;;;;;;;;5065607;28;20085;-78
2022/12/31 03:47:38;;;;;;;6.30;1.27;;;;;;;;;;5069583;28;20032;-79
2022/12/31 03:50:05;;;;;;;11.45;1.58;;;;;;;;;;5054455;28;20716;-79
2022/12/31 03:52:34;;;;;;;7.32;1.50;;;;;;;;;;5065748;28;20439;-79
2022/12/31 03:55:01;;;;;;;5.20;0.80;;;;;;;;;;5072410;28;20107;-80
2022/12/31 03:57:27;;;;;;;4.28;1.58;;;;;;;;;;5068044;28;20384;-79
2022/12/31 03:59:53;;;;;;;6.05;1.83;;;;;;;;;;5052117;28;20028;-79
2022/12/31 04:02:19;;;;;;;5.95;1.63;;;;;;;;;;5060308;28;20028;-78
2022/12/31 04:04:45;;;;;;;7.82;1.60;;;;;;;;;;5050675;28;20067;-80
2022/12/31 04:07:11;;;;;;;5.57;1.20;;;;;;;;;;5074285;28;20021;-82
2022/12/31 04:09:37;;;;;;;6.10;1.55;;;;;;;;;;5093070;28;20036;-80
2022/12/31 04:12:04;;;;;;;10.55;0.95;;;;;;;;;;5087986;28;20112;-83
2022/12/31 04:14:30;;;;;;;11.35;1.10;;;;;;;;;;5074217;28;20470;-81
2022/12/31 04:16:56;;;;;;;10.65;1.38;;;;;;;;;;5072828;28;20362;-83
2022/12/31 04:19:22;;;;;;;9.85;1.42;;;;;;;;;;5075273;28;20030;-81
2022/12/31 04:21:48;;;;;;;12.40;2.38;;;;;;;;;;5073226;28;20043;-81
2022/12/31 04:24:14;;;;;;;7.13;1.60;;;;;;;;;;5070042;28;20044;-80
2022/12/31 04:26:40;;;;;;;10.07;1.45;;;;;;;;;;5071513;28;20138;-80
2022/12/31 04:29:06;;;;;;;9.63;1.33;;;;;;;;;;5080136;28;20037;-81
2022/12/31 04:31:32;;;;;;;12.10;2.20;;;;;;;;;;5071554;28;20511;-81
2022/12/31 04:33:58;;;;;;;13.05;1.38;;;;;;;;;;5069305;28;20469;-82
2022/12/31 04:36:24;;;;;;;9.95;1.60;;;;;;;;;;5072225;28;20039;-81
2022/12/31 04:38:50;;;;;;;11.25;3.33;;;;;;;;;;5070287;28;20032;-80
2022/12/31 04:41:16;;;;;;;11.85;1.50;;;;;;;;;;5051319;28;20160;-80
2022/12/31 04:43:43;;;;;;;11.95;2.08;;;;;;;;;;5071997;28;20096;-81
2022/12/31 04:46:09;;;;;;;10.07;1.77;;;;;;;;;;5067502;28;20078;-81
2022/12/31 04:48:35;;;;;;;6.95;2.05;;;;;;;;;;5068620;28;20032;-82
2022/12/31 04:51:01;;;;;;;13.70;2.90;;;;;;;;;;5065732;28;20366;-83
2022/12/31 04:53:28;;;;;;;5.82;1.80;;;;;;;;;;5074862;28;20024;-82
2022/12/31 04:55:54;;;;;;;14.95;2.10;;;;;;;;;;5081578;28;20044;-83
2022/12/31 04:58:20;;;;;;;7.80;1.90;;;;;;;;;;5073541;28;20031;-79
2022/12/31 05:00:48;;;;;;;15.20;1.67;;;;;;;;;;5070403;28;20438;-79
2022/12/31 05:03:18;;;;;;;13.25;2.58;;;;;;;;;;5074291;28;20028;-81
2022/12/31 05:05:44;;;;;;;13.75;2.75;;;;;;;;;;5068738;28;20032;-81
2022/12/31 05:08:13;;;;;;;11.32;1.83;;;;;;;;;;5062625;28;20025;-82
2022/12/31 05:10:46;;;;;;;14.38;1.80;;;;;;;;;;5061691;28;20036;-81
2022/12/31 05:13:13;;;;;;;9.57;1.73;;;;;;;;;;5070873;28;20101;-81
2022/12/31 05:15:39;;;;;;;12.90;2.70;;;;;;;;;;5072956;28;20996;-80
2022/12/31 05:18:06;;;;;;;9.77;2.03;;;;;;;;;;5060460;28;20377;-82
2022/12/31 05:20:32;;;;;;;11.82;2.53;;;;;;;;;;5069511;28;20047;-82
2022/12/31 05:22:58;;;;;;;14.25;2.50;;;;;;;;;;5080060;28;20478;-80
2022/12/31 05:25:24;;;;;;;10.20;2.80;;;;;;;;;;5072346;28;20075;-80
2022/12/31 05:27:50;;;;;;;9.18;2.33;;;;;;;;;;5052923;28;20029;-79
2022/12/31 05:30:19;;;;;;;12.45;3.50;;;;;;;;;;5077515;28;20032;-79
2022/12/31 05:32:45;;;;;;;12.25;3.28;;;;;;;;;;5070517;28;20407;-81
2022/12/31 05:35:11;;;;;;;8.18;3.60;;;;;;;;;;5069380;28;20163;-81
2022/12/31 05:37:38;;;;;;;16.40;3.70;;;;;;;;;;5066497;28;20028;-81
2022/12/31 05:40:04;;;;;;;8.73;3.67;;;;;;;;;;5072018;28;20036;-81
2022/12/31 05:42:30;;;;;;;7.50;3.60;;;;;;;;;;5066606;28;20029;-82
2022/12/31 05:44:56;;;;;;;8.32;3.70;;;;;;;;;;5068733;28;20036;-83
2022/12/31 05:47:22;;;;;;;9.30;4.10;;;;;;;;;;5065576;28;20038;-81
2022/12/31 05:49:48;;;;;;;11.63;3.78;;;;;;;;;;5076354;28;20032;-79
2022/12/31 05:52:14;;;;;;;7.38;4.18;;;;;;;;;;5067287;28;20456;-80
2022/12/31 05:54:40;;;;;;;9.35;5.15;;;;;;;;;;5067519;28;20047;-80
2022/12/31 05:57:07;;;;;;;8.25;4.70;;;;;;;;;;5077514;28;20473;-81
2022/12/31 05:59:33;;;;;;;10.52;5.95;;;;;;;;;;5074784;28;20048;-81
2022/12/31 06:01:59;;;;;;;13.18;6.28;;;;;;;;;;5066309;28;20063;-81
2022/12/31 06:04:25;;;;;;;14.52;6.15;;;;;;;;;;5051675;28;20029;-84
2022/12/31 06:06:51;;;;;;;10.77;6.07;;;;;;;;;;5078095;28;20028;-85
2022/12/31 06:09:18;;;;;;;7.18;5.72;;;;;;;;;;5080894;28;20051;-86
2022/12/31 06:11:44;;;;;;;9.40;6.40;;;;;;;;;;5089652;28;20025;-78
2022/12/31 06:14:10;;;;;;;12.68;6.50;;;;;;;;;;5079681;28;20068;-84
2022/12/31 06:16:36;;;;;;;15.18;6.45;;;;;;;;;;5066965;28;20067;-79
2022/12/31 06:19:02;;;;;;;9.77;5.32;;;;;;;;;;5064876;28;20092;-83
2022/12/31 06:21:29;;;;;;;7.80;4.68;;;;;;;;;;5051285;28;20043;-84
2022/12/31 06:23:55;;;;;;;12.27;4.88;;;;;;;;;;5048689;28;20044;-83
2022/12/31 06:26:21;;;;;;;9.50;4.90;;;;;;;;;;5065412;28;20083;-81
2022/12/31 06:28:47;;;;;;;8.90;4.72;;;;;;;;;;5046667;28;20104;-83
2022/12/31 06:31:14;;;;;;;8.93;4.40;;;;;;;;;;5063165;28;20388;-83
2022/12/31 06:33:40;;;;;;;9.55;4.63;;;;;;;;;;5060196;28;20024;-84
2022/12/31 06:36:08;;;;;;;13.60;4.45;;;;;;;;;;5062044;28;20020;-81
2022/12/31 06:38:36;;;;;;;9.13;4.10;;;;;;;;;;5066566;28;20036;-84
2022/12/31 06:41:06;;;;;;;9.32;3.97;;;;;;;;;;5067964;28;20027;-84
2022/12/31 06:43:33;;;;;;;8.80;2.70;;;;;;;;;;5064438;28;20109;-85
2022/12/31 06:46:03;;;;;;;8.50;3.25;;;;;;;;;;5062033;28;20044;-83
2022/12/31 06:48:29;;;;;;;5.57;2.75;;;;;;;;;;5049931;28;20047;-85
2022/12/31 06:50:55;;;;;;;6.82;2.42;;;;;;;;;;5048892;28;20029;-84
2022/12/31 06:53:21;;;;;;;8.18;2.50;;;;;;;;;;5062923;28;20047;-83
2022/12/31 06:55:48;;;;;;;8.77;2.40;;;;;;;;;;5059305;28;20104;-83
2022/12/31 06:58:14;;;;;;;4.35;2.45;;;;;;;;;;5059648;28;20107;-86
2022/12/31 07:00:50;;;;;;;6.85;2.88;;;;;;;;;;5057551;28;20061;-85
2022/12/31 07:03:26;;;;;;;8.95;3.20;;;;;;;;;;5065949;28;20064;-78
2022/12/31 07:05:56;;;;;;;6.68;2.80;;;;;;;;;;5055207;28;20033;-82
2022/12/31 07:08:25;;;;;;;8.18;2.80;;;;;;;;;;5053622;28;20048;-80
2022/12/31 07:11:01;;;;;;;10.30;3.85;;;;;;;;;;5057718;28;20025;-89
2022/12/31 07:13:28;;;;;;;9.85;4.60;;;;;;;;;;5039105;28;20025;-82
2022/12/31 07:15:54;;;;;;;6.32;3.80;;;;;;;;;;5059318;28;20049;-90
2022/12/31 07:18:21;;;;;;;9.02;3.83;;;;;;;;;;5068848;28;20127;-87
2022/12/31 07:20:47;;;;;;;4.75;3.58;;;;;;;;;;5059491;28;20024;-84
2022/12/31 07:23:13;;;;;;;5.70;3.20;;;;;;;;;;5065099;28;20135;-81
2022/12/31 07:25:43;;;;;;;5.88;3.13;;;;;;;;;;5057971;28;20039;-81
2022/12/31 07:28:09;;;;;;;3.83;3.28;;;;;;;;;;5067419;28;20523;-78
2022/12/31 07:30:42;;;;;;;4.38;3.03;;;;;;;;;;5065112;28;20476;-79
2022/12/31 07:33:08;;;;;;;;;;;;;;;;;;5074582;28;20020;-85
2022/12/31 07:35:43;;;;;;;3.30;3.00;;;;;;;;;;5062164;28;19932;-82
2022/12/31 07:38:21;;;;;;;5.18;3.67;;;;;;;;;;5045051;28;20031;-79
2022/12/31 07:41:02;;;;;;;3.83;3.42;;;;;;;;;;5061867;28;20036;-80
2022/12/31 07:43:28;;;;;;;4.68;4.28;;;;;;;;;;5059414;28;20135;-77
2022/12/31 07:46:23;;;;;;;4.18;3.63;;;;;;;;;;5059039;28;20100;-79
2022/12/31 07:48:49;;;;;;;22.73;12.65;;;;;;;;;;5014187;28;20529;-84
2022/12/31 07:51:16;;;;;;;5.15;4.30;;;;;;;;;;5066542;28;20066;-81
2022/12/31 07:53:42;;;;;;;7.55;5.90;;;;;;;;;;5060257;28;20055;-79
2022/12/31 07:56:08;;;;;;;5.43;4.82;;;;;;;;;;5039280;28;20485;-87
2022/12/31 07:58:47;;;;;;;6.28;4.28;;;;;;;;;;5063506;28;20143;-88
2022/12/31 08:01:16;;;;;;;6.60;4.32;;;;;;;;;;5068700;28;20041;-88
2022/12/31 08:04:02;;;;;;;8.32;4.78;;;;;;;;;;5067009;28;20038;-85
2022/12/31 08:06:51;;;;;;;5.75;5.03;;;;;;;;;;5062536;28;20044;-85
2022/12/31 08:09:32;;;;;;;5.78;4.70;;;;;;;;;;5051422;28;20040;-85
2022/12/31 08:12:00;;;;;;;6.53;5.05;;;;;;;;;;5059916;28;20178;-85
2022/12/31 08:14:26;;;;;;;5.43;4.20;;;;;;;;;;5062459;28;20052;-86
2022/12/31 08:16:53;;;;;;;5.65;3.97;;;;;;;;;;5061313;28;20464;-85
2022/12/31 08:19:24;;;;;;;4.75;4.18;;;;;;;;;;5049832;28;20032;-81
2022/12/31 08:22:01;;;;;;;4.38;3.97;;;;;;;;;;5065683;28;20031;-79
2022/12/31 08:24:34;;;;;;;4.22;3.83;;;;;;;;;;5064450;28;20327;-79
2022/12/31 08:26:59;;;;;;;;;;;;;;;;;;5063787;28;20029;-81
2022/12/31 08:29:41;;;;;;;5.43;4.95;;;;;;;;;;5064740;28;19962;-82
2022/12/31 08:32:07;;;;;;;5.57;4.57;;;;;;;;;;5061791;28;20029;-79
2022/12/31 08:34:56;;;;;;;5.60;5.10;;;;;;;;;;5070123;28;20111;-79
2022/12/31 08:37:41;;;;;;;5.70;5.07;;;;;;;;;;5020930;28;20501;-82
2022/12/31 08:40:16;;;;;;;5.93;5.32;;;;;;;;;;5064816;28;20045;-81
2022/12/31 08:42:47;;;;;;;5.93;5.38;;;;;;;;;;5051612;28;20043;-81
2022/12/31 08:45:36;;;;;;;6.43;5.50;;;;;;;;;;5072297;28;20039;-83
2022/12/31 08:48:11;;;;;;;6.82;5.78;;;;;;;;;;5067771;28;20062;-86
2022/12/31 08:50:37;;;;;;;6.40;5.80;;;;;;;;;;5078244;28;20041;-85
2022/12/31 08:53:03;;;;;;;6.05;5.25;;;;;;;;;;5071988;28;20046;-85
2022/12/31 08:55:30;;;;;;;6.13;5.30;;;;;;;;;;5075884;28;20075;-84
2022/12/31 08:58:15;;;;;;;7.30;5.47;;;;;;;;;;5076576;28;20063;-83
2022/12/31 09:00:41;;;;;;;5.35;4.68;;;;;;;;;;5055199;28;20043;-84
2022/12/31 09:03:07;;;;;;;6.47;4.90;;;;;;;;;;5050455;28;20037;-81
2022/12/31 09:05:45;;;;;;;6.38;4.78;;;;;;;;;;5068776;28;20430;-84
2022/12/31 09:08:20;;;;;;;11.45;3.42;;;;;;;;;;5071787;28;20041;-84
2022/12/31 09:10:55;;;;;;;5.97;3.40;;;;;;;;;;5070232;28;20033;-83
2022/12/31 09:13:21;;;;;;;9.90;3.15;;;;;;;;;;5064156;28;20047;-84
2022/12/31 09:15:52;;;;;;;7.53;3.60;;;;;;;;;;5063939;28;21133;-77
2022/12/31 09:18:18;;;;;;;7.20;3.58;;;;;;;;;;5061616;28;20120;-79
2022/12/31 09:20:44;;;;;;;8.30;4.30;;;;;;;;;;5063427;28;20036;-79
2022/12/31 09:23:11;;;;;;;5.93;2.28;;;;;;;;;;5058634;28;20036;-80
2022/12/31 09:25:54;;;;;;;9.32;2.38;;;;;;;;;;5061350;28;20097;-79
2022/12/31 09:28:29;;;;;;;9.20;3.05;;;;;;;;;;5044122;28;20435;-77
2022/12/31 09:31:10;;;;;;;7.50;2.63;;;;;;;;;;5063353;28;20440;-79
2022/12/31 09:33:47;;;;;;;8.40;2.60;;;;;;;;;;5058490;28;20398;-77
2022/12/31 09:36:17;;;;;;;7.22;2.50;;;;;;;;;;5062525;28;20035;-79
2022/12/31 09:38:56;;;;;;;7.28;2.72;;;;;;;;;;5058655;28;20119;-77
2022/12/31 09:41:25;;;;;;;10.55;4.43;;;;;;;;;;5040689;28;20024;-78
2022/12/31 09:43:54;;;;;;;5.38;2.97;;;;;;;;;;5059573;28;20048;-80
2022/12/31 09:46:38;;;;;;;4.75;1.17;;;;;;;;;;5042428;28;20437;-78
2022/12/31 09:49:23;;;;;;;5.95;1.55;;;;;;;;;;5058220;28;20031;-78
2022/12/31 09:52:07;;;;;;;3.08;0.90;;;;;;;;;;5059152;28;20037;-78
2022/12/31 09:54:33;;;;;;;5.68;1.23;;;;;;;;;;5052951;28;20166;-79
2022/12/31 09:56:59;;;;;;;4.10;1.30;;;;;;;;;;5060466;28;20472;-80
2022/12/31 09:59:25;;;;;;;4.70;1.20;;;;;;;;;;5067625;28;20044;-78
2022/12/31 10:02:18;;;;;;;9.82;1.67;;;;;;;;;;5062576;28;20040;-80
2022/12/31 10:05:12;;;;;;;5.95;1.10;;;;;;;;;;5066747;28;20067;-81
2022/12/31 10:08:04;;;;;;;13.98;1.08;;;;;;;;;;5044946;28;20040;-79
2022/12/31 10:10:38;;;;;;;7.50;1.20;;;;;;;;;;5047891;28;20040;-82
2022/12/31 10:13:22;;;;;;;10.35;2.58;;;;;;;;;;5063252;28;20041;-82
2022/12/31 10:16:07;;;;;;;9.05;1.40;;;;;;;;;;5061864;28;20036;-78
2022/12/31 10:18:48;;;;;;;9.48;1.35;;;;;;;;;;5055289;28;20468;-79
2022/12/31 10:21:33;;;;;;;13.38;2.63;;;;;;;;;;5062180;28;20064;-82
2022/12/31 10:24:02;;;;;;;8.05;1.05;;;;;;;;;;5064045;28;20037;-81
2022/12/31 10:26:31;;;;;;;6.15;1.50;;;;;;;;;;5048723;28;20032;-81
2022/12/31 10:29:16;;;;;;;10.88;1.50;;;;;;;;;;5060631;28;20177;-82
2022/12/31 10:31:45;;;;;;;14.13;2.22;;;;;;;;;;5060850;28;20036;-78
2022/12/31 10:34:15;;;;;;;18.13;5.20;;;;;;;;;;5062959;28;20056;-78
2022/12/31 10:36:54;;;;;;;12.57;1.90;;;;;;;;;;5045312;28;20119;-79
2022/12/31 10:39:38;;;;;;;14.23;1.85;;;;;;;;;;5064438;28;20579;-78
2022/12/31 10:42:20;;;;;;;12.50;2.35;;;;;;;;;;5058815;28;20037;-79
2022/12/31 10:45:05;;;;;;;20.20;5.43;;;;;;;;;;5060370;28;20061;-80
2022/12/31 10:47:31;;;;;;;14.40;4.25;;;;;;;;;;5059266;28;20029;-79
2022/12/31 10:50:23;;;;;;;13.52;2.78;;;;;;;;;;5061938;28;20083;-80
2022/12/31 10:52:49;;;;;;;14.05;3.05;;;;;;;;;;5067683;28;20033;-80
2022/12/31 10:55:30;;;;;;;11.45;2.00;;;;;;;;;;5065997;28;20473;-78
2022/12/31 10:57:59;;;;;;;13.90;2.17;;;;;;;;;;5061338;28;20751;-79
2022/12/31 11:00:29;;;;;;;19.30;2.50;;;;;;;;;;5046855;28;20135;-79
2022/12/31 11:03:13;;;;;;;15.68;3.33;;;;;;;;;;5065177;28;20082;-77
2022/12/31 11:05:58;;;;;;;18.33;3.13;;;;;;;;;;5064128;28;20033;-77
2022/12/31 11:08:24;;;;;;;14.02;2.97;;;;;;;;;;5071066;28;20040;-77
2022/12/31 11:11:11;;;;;;;16.27;3.40;;;;;;;;;;5074012;28;20024;-79
2022/12/31 11:13:40;;;;;;;17.95;2.55;;;;;;;;;;5068558;28;20036;-76
2022/12/31 11:16:06;;;;;;;12.90;2.25;;;;;;;;;;5044947;28;20053;-77
2022/12/31 11:18:50;;;;;;;17.38;2.38;;;;;;;;;;5049208;28;20048;-78
2022/12/31 11:21:16;;;;;;;17.58;3.30;;;;;;;;;;5048471;28;20035;-78
2022/12/31 11:23:48;;;;;;;11.20;2.33;;;;;;;;;;5047414;28;20037;-78
2022/12/31 11:26:26;;;;;;;16.48;3.47;;;;;;;;;;5042735;28;20032;-78
2022/12/31 11:28:58;;;;;;;15.60;2.90;;;;;;;;;;5045493;28;20039;-78
2022/12/31 11:31:27;;;;;;;17.50;3.55;;;;;;;;;;5042954;28;20166;-77
2022/12/31 11:34:03;;;;;;;15.00;2.67;;;;;;;;;;5048966;28;20261;-78
2022/12/31 11:37:01;;;;;;;13.00;2.05;;;;;;;;;;5039693;28;20474;-76
2022/12/31 11:39:34;;;;;;;10.88;2.22;;;;;;;;;;5023771;28;20111;-78
2022/12/31 11:42:19;;;;;;;8.18;2.00;;;;;;;;;;5048020;28;20033;-78
2022/12/31 11:44:51;;;;;;;13.57;4.65;;;;;;;;;;5051029;28;20474;-80
2022/12/31 11:47:37;;;;;;;13.35;2.50;;;;;;;;;;5041206;28;20033;-78
2022/12/31 11:50:14;;;;;;;7.88;1.80;;;;;;;;;;5045500;28;20461;-78
2022/12/31 11:52:58;;;;;;;11.02;2.28;;;;;;;;;;5047584;28;20484;-79
2022/12/31 11:55:24;;;;;;;7.70;1.60;;;;;;;;;;5054819;28;20045;-79
2022/12/31 11:57:52;;;;;;;10.02;1.90;;;;;;;;;;5046805;28;20041;-79
2022/12/31 12:00:22;;;;;;;10.10;2.45;;;;;;;;;;5048169;28;20486;-79
2022/12/31 12:02:53;;;;;;;9.73;2.60;;;;;;;;;;5044614;28;20152;-77
2022/12/31 12:05:21;;;;;;;13.38;2.75;;;;;;;;;;5054152;28;20088;-78
2022/12/31 12:07:47;;;;;;;13.63;3.15;;;;;;;;;;5053244;28;20021;-79
2022/12/31 12:10:34;;;;;;;12.45;2.92;;;;;;;;;;5054426;28;21439;-83
2022/12/31 12:13:00;;;;;;;13.98;3.17;;;;;;;;;;5039807;28;20049;-84
2022/12/31 12:15:28;;;;;;;19.85;3.85;;;;;;;;;;5053049;28;20060;-82
2022/12/31 12:17:58;;;;;;;20.60;3.25;;;;;;;;;;5036552;28;20037;-82
2022/12/31 12:20:28;;;;;;;18.33;3.35;;;;;;;;;;5048449;28;20037;-83
2022/12/31 12:22:57;;;;;;;18.55;2.45;;;;;;;;;;5051787;28;20090;-83
2022/12/31 12:25:25;;;;;;;12.43;2.47;;;;;;;;;;5065740;28;20124;-80
2022/12/31 12:27:51;;;;;;;20.42;4.45;;;;;;;;;;5046683;28;20509;-81
2022/12/31 12:30:19;;;;;;;19.50;4.60;;;;;;;;;;5041222;28;20342;-78
2022/12/31 12:32:53;;;;;;;15.57;2.85;;;;;;;;;;5048572;28;20041;-78
2022/12/31 12:35:23;;;;;;;17.25;3.22;;;;;;;;;;5037636;28;20036;-75
2022/12/31 12:37:58;;;;;;;14.02;3.13;;;;;;;;;;5044016;28;20029;-78
2022/12/31 12:40:25;;;;;;;18.80;4.53;;;;;;;;;;5048242;28;20032;-80
2022/12/31 12:42:52;;;;;;;11.35;2.92;;;;;;;;;;5042872;28;20041;-81
2022/12/31 12:45:20;;;;;;;15.23;3.88;;;;;;;;;;5048443;28;20497;-79
2022/12/31 12:47:47;;;;;;;17.48;2.92;;;;;;;;;;5035323;28;20029;-79
2022/12/31 12:50:15;;;;;;;19.15;3.42;;;;;;;;;;5039396;28;20037;-77
2022/12/31 12:52:49;;;;;;;20.80;4.25;;;;;;;;;;5047758;28;20194;-82
2022/12/31 12:55:18;;;;;;;15.40;2.65;;;;;;;;;;5049242;28;20151;-80
2022/12/31 12:58:03;;;;;;;15.52;3.58;;;;;;;;;;5045904;28;20112;-77
2022/12/31 13:00:32;;;;;;;16.23;3.60;;;;;;;;;;5035699;28;20021;-79
2022/12/31 13:03:01;;;;;;;12.10;2.20;;;;;;;;;;5047468;28;20037;-79
2022/12/31 13:05:42;;;;;;;16.95;2.78;;;;;;;;;;5047298;28;20041;-80
2022/12/31 13:08:26;;;;;;;16.35;3.20;;;;;;;;;;5046529;28;20033;-80
2022/12/31 13:10:52;;;;;;;11.65;2.88;;;;;;;;;;5046797;28;20129;-80
2022/12/31 13:13:42;;;;;;;20.05;3.13;;;;;;;;;;5045742;28;20040;-77
2022/12/31 13:16:10;;;;;;;18.98;3.33;;;;;;;;;;5060023;28;20045;-77
2022/12/31 13:18:42;;;;;;;14.70;2.92;;;;;;;;;;5066132;28;20537;-79
2022/12/31 13:21:27;;;;;;;12.13;2.90;;;;;;;;;;5051974;28;20024;-79
2022/12/31 13:24:00;;;;;;;16.83;3.78;;;;;;;;;;5064430;28;20041;-79
2022/12/31 13:26:26;;;;;;;17.15;2.70;;;;;;;;;;5068612;28;20054;-79
2022/12/31 13:28:54;;;;;;;16.50;3.40;;;;;;;;;;5062507;28;20052;-77
2022/12/31 13:31:28;;;;;;;15.48;3.95;;;;;;;;;;5065154;28;20469;-79
2022/12/31 13:34:03;;;;;;;21.63;4.32;;;;;;;;;;5059197;28;20032;-77
2022/12/31 13:36:31;;;;;;;17.33;3.80;;;;;;;;;;5071288;28;20032;-79
2022/12/31 13:39:00;;;;;;;19.05;4.20;;;;;;;;;;5061701;28;20459;-81
2022/12/31 13:41:26;;;;;;;11.18;3.10;;;;;;;;;;5069291;28;20021;-81
2022/12/31 13:44:04;;;;;;;16.73;4.78;;;;;;;;;;5062778;28;20338;-85
2022/12/31 13:46:30;;;;;;;10.88;2.78;;;;;;;;;;5065856;28;20096;-83
2022/12/31 13:48:57;;;;;;;9.88;3.45;;;;;;;;;;5061089;28;20120;-84
2022/12/31 13:51:27;;;;;;;8.88;1.60;;;;;;;;;;5068404;28;20063;-85
2022/12/31 13:53:53;;;;;;;7.90;2.47;;;;;;;;;;5062426;28;20097;-85
2022/12/31 13:56:22;;;;;;;9.45;2.53;;;;;;;;;;5050110;28;20113;-84
2022/12/31 13:58:55;;;;;;;11.13;2.72;;;;;;;;;;5065859;28;20036;-78
2022/12/31 14:01:21;;;;;;;11.50;3.30;;;;;;;;;;5068699;28;20086;-79
2022/12/31 14:03:50;;;;;;;8.50;1.73;;;;;;;;;;5056964;28;20029;-79
2022/12/31 14:06:16;;;;;;;8.65;2.53;;;;;;;;;;5067460;28;20063;-80
2022/12/31 14:08:42;;;;;;;9.68;2.28;;;;;;;;;;5063786;28;20020;-84
2022/12/31 14:11:24;;;;;;;8.45;2.78;;;;;;;;;;5058869;28;20131;-81
2022/12/31 14:13:59;;;;;;;9.35;2.88;;;;;;;;;;5061925;28;20492;-82
2022/12/31 14:16:48;;;;;;;7.60;2.17;;;;;;;;;;5064513;28;20116;-83
2022/12/31 14:19:24;;;;;;;8.52;2.05;;;;;;;;;;5061562;28;20059;-80
2022/12/31 14:21:55;;;;;;;8.52;2.33;;;;;;;;;;5069083;28;20032;-82
2022/12/31 14:24:21;;;;;;;7.22;2.15;;;;;;;;;;5062396;28;20047;-81
2022/12/31 14:26:50;;;;;;;8.02;1.80;;;;;;;;;;5065107;28;20029;-82
2022/12/31 14:29:18;;;;;;;3.50;1.33;;;;;;;;;;5062743;28;20041;-85
2022/12/31 14:31:47;;;;;;;4.22;1.30;;;;;;;;;;5058663;28;20060;-83
2022/12/31 14:34:16;;;;;;;3.40;1.00;;;;;;;;;;5058670;28;20448;-86
2022/12/31 14:36:56;;;;;;;3.35;1.08;;;;;;;;;;5068481;28;20030;-83
2022/12/31 14:39:27;;;;;;;3.20;1.10;;;;;;;;;;5063440;28;20036;-83
2022/12/31 14:41:57;;;;;;;3.35;1.13;;;;;;;;;;5075906;28;20048;-89
2022/12/31 14:44:42;;;;;;;4.40;1.40;;;;;;;;;;5061907;28;20029;-85
2022/12/31 14:47:16;;;;;;;6.00;1.60;;;;;;;;;;5075100;28;20071;-85
2022/12/31 14:49:55;;;;;;;2.03;1.20;;;;;;;;;;5053575;28;20032;-87
2022/12/31 14:52:22;;;;;;;153.27;111.40;;;;;;;;;;5074946;28;20029;-85
2022/12/31 14:55:07;;;;;;;2.95;1.00;;;;;;;;;;5066636;28;20025;-84
2022/12/31 14:57:34;;;;;;;5.40;2.00;;;;;;;;;;5067805;28;20453;-81
2022/12/31 15:00:01;;;;;;;5.60;1.90;;;;;;;;;;5069667;28;20495;-78
2022/12/31 15:02:32;;;;;;;8.57;2.10;;;;;;;;;;5064792;28;20041;-83
2022/12/31 15:05:10;;;;;;;10.20;1.90;;;;;;;;;;5072971;28;20477;-82